sensor_id;sensor_type;location;lat;lon;timestamp;P1;durP1;ratioP1;P2;durP2;ratioP2
63218;SDS011;49320;52.512;13.448;2023-07-22T00:01:36;3.40;;;3.00;;
63218;SDS011;49320;52.512;13.448;2023-07-22T00:04:03;3.63;;;3.20;;
63218;SDS011;49320;52.512;13.448;2023-07-22T00:06:30;3.05;;;2.50;;
63218;SDS011;49320;52.512;13.448;2023-07-22T00:08:57;3.70;;;2.65;;
63218;SDS011;49320;52.512;13.448;2023-07-22T00:11:24;3.22;;;2.85;;
63218;SDS011;49320;52.512;13.448;2023-07-22T00:13:51;2.88;;;2.58;;
63218;SDS011;49320;52.512;13.448;2023-07-22T00:16:18;3.78;;;3.38;;
63218;SDS011;49320;52.512;13.448;2023-07-22T00:18:46;3.53;;;3.20;;
63218;SDS011;49320;52.512;13.448;2023-07-22T00:21:16;3.80;;;2.75;;
63218;SDS011;49320;52.512;13.448;2023-07-22T00:23:43;3.92;;;2.70;;
63218;SDS011;49320;52.512;13.448;2023-07-22T00:26:12;3.83;;;3.03;;
63218;SDS011;49320;52.512;13.448;2023-07-22T00:28:39;3.38;;;2.75;;
63218;SDS011;49320;52.512;13.448;2023-07-22T00:31:07;3.50;;;3.17;;
63218;SDS011;49320;52.512;13.448;2023-07-22T00:33:35;4.63;;;2.88;;
63218;SDS011;49320;52.512;13.448;2023-07-22T00:36:02;3.60;;;3.13;;
63218;SDS011;49320;52.512;13.448;2023-07-22T00:38:29;3.13;;;2.70;;
63218;SDS011;49320;52.512;13.448;2023-07-22T00:40:57;3.20;;;2.90;;
63218;SDS011;49320;52.512;13.448;2023-07-22T00:43:24;3.80;;;2.70;;
63218;SDS011;49320;52.512;13.448;2023-07-22T00:45:54;3.00;;;2.70;;
63218;SDS011;49320;52.512;13.448;2023-07-22T00:48:21;3.55;;;3.25;;
63218;SDS011;49320;52.512;13.448;2023-07-22T00:50:49;2.95;;;2.50;;
63218;SDS011;49320;52.512;13.448;2023-07-22T00:53:16;3.60;;;2.58;;
63218;SDS011;49320;52.512;13.448;2023-07-22T00:55:44;2.90;;;2.63;;
63218;SDS011;49320;52.512;13.448;2023-07-22T00:58:12;3.40;;;3.10;;
63218;SDS011;49320;52.512;13.448;2023-07-22T01:00:38;4.97;;;2.80;;
63218;SDS011;49320;52.512;13.448;2023-07-22T01:03:06;3.50;;;2.97;;
63218;SDS011;49320;52.512;13.448;2023-07-22T01:05:34;2.85;;;2.53;;
63218;SDS011;49320;52.512;13.448;2023-07-22T01:08:03;2.70;;;2.50;;
63218;SDS011;49320;52.512;13.448;2023-07-22T01:10:30;3.50;;;2.90;;
63218;SDS011;49320;52.512;13.448;2023-07-22T01:12:57;3.22;;;2.92;;
63218;SDS011;49320;52.512;13.448;2023-07-22T01:15:25;2.90;;;2.60;;
63218;SDS011;49320;52.512;13.448;2023-07-22T01:17:53;3.40;;;2.70;;
63218;SDS011;49320;52.512;13.448;2023-07-22T01:20:21;3.88;;;3.35;;
63218;SDS011;49320;52.512;13.448;2023-07-22T01:22:50;3.83;;;3.03;;
63218;SDS011;49320;52.512;13.448;2023-07-22T01:25:22;3.80;;;2.90;;
63218;SDS011;49320;52.512;13.448;2023-07-22T01:27:50;4.15;;;3.53;;
63218;SDS011;49320;52.512;13.448;2023-07-22T01:30:17;3.85;;;2.35;;
63218;SDS011;49320;52.512;13.448;2023-07-22T01:32:46;3.00;;;2.58;;
63218;SDS011;49320;52.512;13.448;2023-07-22T01:35:13;3.05;;;2.65;;
63218;SDS011;49320;52.512;13.448;2023-07-22T01:37:41;3.40;;;3.10;;
63218;SDS011;49320;52.512;13.448;2023-07-22T01:40:08;2.53;;;2.33;;
63218;SDS011;49320;52.512;13.448;2023-07-22T01:42:39;2.97;;;2.58;;
63218;SDS011;49320;52.512;13.448;2023-07-22T01:45:08;2.85;;;2.55;;
63218;SDS011;49320;52.512;13.448;2023-07-22T01:47:37;3.13;;;2.83;;
63218;SDS011;49320;52.512;13.448;2023-07-22T01:50:05;3.00;;;2.47;;
63218;SDS011;49320;52.512;13.448;2023-07-22T01:52:33;2.78;;;2.38;;
63218;SDS011;49320;52.512;13.448;2023-07-22T01:55:01;4.57;;;2.88;;
63218;SDS011;49320;52.512;13.448;2023-07-22T01:57:32;3.00;;;2.70;;
63218;SDS011;49320;52.512;13.448;2023-07-22T01:59:59;2.70;;;2.50;;
63218;SDS011;49320;52.512;13.448;2023-07-22T02:02:26;2.92;;;2.15;;
63218;SDS011;49320;52.512;13.448;2023-07-22T02:04:53;7.55;;;2.92;;
63218;SDS011;49320;52.512;13.448;2023-07-22T02:07:21;3.13;;;2.83;;
63218;SDS011;49320;52.512;13.448;2023-07-22T02:09:47;2.90;;;2.60;;
63218;SDS011;49320;52.512;13.448;2023-07-22T02:12:18;3.00;;;2.72;;
63218;SDS011;49320;52.512;13.448;2023-07-22T02:14:45;5.03;;;2.53;;
63218;SDS011;49320;52.512;13.448;2023-07-22T02:17:12;3.50;;;2.95;;
63218;SDS011;49320;52.512;13.448;2023-07-22T02:19:39;3.00;;;2.80;;
63218;SDS011;49320;52.512;13.448;2023-07-22T02:22:06;4.03;;;2.97;;
63218;SDS011;49320;52.512;13.448;2023-07-22T02:24:33;3.13;;;2.58;;
63218;SDS011;49320;52.512;13.448;2023-07-22T02:27:00;2.70;;;2.50;;
63218;SDS011;49320;52.512;13.448;2023-07-22T02:29:27;3.10;;;2.80;;
63218;SDS011;49320;52.512;13.448;2023-07-22T02:31:57;3.67;;;3.38;;
63218;SDS011;49320;52.512;13.448;2023-07-22T02:34:24;3.33;;;2.63;;
63218;SDS011;49320;52.512;13.448;2023-07-22T02:36:51;2.90;;;2.60;;
63218;SDS011;49320;52.512;13.448;2023-07-22T02:39:18;3.00;;;2.47;;
63218;SDS011;49320;52.512;13.448;2023-07-22T02:41:46;2.97;;;2.60;;
63218;SDS011;49320;52.512;13.448;2023-07-22T02:44:13;2.78;;;2.53;;
63218;SDS011;49320;52.512;13.448;2023-07-22T02:46:41;3.97;;;2.65;;
63218;SDS011;49320;52.512;13.448;2023-07-22T02:49:08;2.95;;;2.38;;
63218;SDS011;49320;52.512;13.448;2023-07-22T02:51:36;2.63;;;2.42;;
63218;SDS011;49320;52.512;13.448;2023-07-22T02:54:03;5.95;;;2.58;;
63218;SDS011;49320;52.512;13.448;2023-07-22T02:56:30;2.63;;;2.42;;
63218;SDS011;49320;52.512;13.448;2023-07-22T02:58:57;2.80;;;2.40;;
63218;SDS011;49320;52.512;13.448;2023-07-22T03:01:24;4.78;;;2.88;;
63218;SDS011;49320;52.512;13.448;2023-07-22T03:03:52;2.97;;;2.55;;
63218;SDS011;49320;52.512;13.448;2023-07-22T03:06:19;3.15;;;2.42;;
63218;SDS011;49320;52.512;13.448;2023-07-22T03:08:46;3.22;;;2.83;;
63218;SDS011;49320;52.512;13.448;2023-07-22T03:11:14;3.22;;;2.72;;
63218;SDS011;49320;52.512;13.448;2023-07-22T03:13:41;2.50;;;2.30;;
63218;SDS011;49320;52.512;13.448;2023-07-22T03:16:08;3.63;;;2.33;;
63218;SDS011;49320;52.512;13.448;2023-07-22T03:18:35;3.70;;;2.60;;
63218;SDS011;49320;52.512;13.448;2023-07-22T03:21:02;2.25;;;2.05;;
63218;SDS011;49320;52.512;13.448;2023-07-22T03:23:30;2.55;;;2.35;;
63218;SDS011;49320;52.512;13.448;2023-07-22T03:25:57;2.22;;;2.03;;
63218;SDS011;49320;52.512;13.448;2023-07-22T03:28:25;3.65;;;2.22;;
63218;SDS011;49320;52.512;13.448;2023-07-22T03:30:52;2.33;;;2.08;;
63218;SDS011;49320;52.512;13.448;2023-07-22T03:33:19;2.70;;;2.50;;
63218;SDS011;49320;52.512;13.448;2023-07-22T03:35:46;2.10;;;1.90;;
63218;SDS011;49320;52.512;13.448;2023-07-22T03:38:13;2.38;;;2.15;;
63218;SDS011;49320;52.512;13.448;2023-07-22T03:40:40;3.67;;;2.35;;
63218;SDS011;49320;52.512;13.448;2023-07-22T03:43:08;2.30;;;2.00;;
63218;SDS011;49320;52.512;13.448;2023-07-22T03:45:35;3.55;;;2.90;;
63218;SDS011;49320;52.512;13.448;2023-07-22T03:48:02;3.90;;;2.38;;
63218;SDS011;49320;52.512;13.448;2023-07-22T03:50:30;2.40;;;2.05;;
63218;SDS011;49320;52.512;13.448;2023-07-22T03:52:56;2.00;;;1.85;;
63218;SDS011;49320;52.512;13.448;2023-07-22T03:55:25;3.15;;;1.90;;
63218;SDS011;49320;52.512;13.448;2023-07-22T03:57:52;3.47;;;2.40;;
63218;SDS011;49320;52.512;13.448;2023-07-22T04:00:20;3.03;;;2.28;;
63218;SDS011;49320;52.512;13.448;2023-07-22T04:02:48;3.75;;;2.42;;
63218;SDS011;49320;52.512;13.448;2023-07-22T04:05:14;1.85;;;1.73;;
63218;SDS011;49320;52.512;13.448;2023-07-22T04:07:41;2.50;;;2.30;;
63218;SDS011;49320;52.512;13.448;2023-07-22T04:10:10;4.25;;;2.00;;
63218;SDS011;49320;52.512;13.448;2023-07-22T04:12:38;2.53;;;2.15;;
63218;SDS011;49320;52.512;13.448;2023-07-22T04:15:08;2.25;;;2.05;;
63218;SDS011;49320;52.512;13.448;2023-07-22T04:17:35;3.78;;;2.08;;
63218;SDS011;49320;52.512;13.448;2023-07-22T04:20:03;2.00;;;1.58;;
63218;SDS011;49320;52.512;13.448;2023-07-22T04:22:32;2.47;;;2.05;;
63218;SDS011;49320;52.512;13.448;2023-07-22T04:24:59;3.28;;;1.90;;
63218;SDS011;49320;52.512;13.448;2023-07-22T04:27:26;3.15;;;2.60;;
63218;SDS011;49320;52.512;13.448;2023-07-22T04:29:53;2.30;;;2.10;;
63218;SDS011;49320;52.512;13.448;2023-07-22T04:32:20;2.85;;;2.17;;
63218;SDS011;49320;52.512;13.448;2023-07-22T04:34:48;3.47;;;2.28;;
63218;SDS011;49320;52.512;13.448;2023-07-22T04:37:14;2.47;;;2.10;;
63218;SDS011;49320;52.512;13.448;2023-07-22T04:39:46;5.38;;;2.40;;
63218;SDS011;49320;52.512;13.448;2023-07-22T04:42:15;2.22;;;2.00;;
63218;SDS011;49320;52.512;13.448;2023-07-22T04:44:42;3.35;;;2.30;;
63218;SDS011;49320;52.512;13.448;2023-07-22T04:47:10;3.35;;;2.47;;
63218;SDS011;49320;52.512;13.448;2023-07-22T04:49:37;2.85;;;2.38;;
63218;SDS011;49320;52.512;13.448;2023-07-22T04:52:05;3.72;;;2.50;;
63218;SDS011;49320;52.512;13.448;2023-07-22T04:54:32;3.33;;;2.40;;
63218;SDS011;49320;52.512;13.448;2023-07-22T04:57:00;3.75;;;2.30;;
63218;SDS011;49320;52.512;13.448;2023-07-22T04:59:27;4.00;;;2.50;;
63218;SDS011;49320;52.512;13.448;2023-07-22T05:01:54;3.08;;;2.63;;
63218;SDS011;49320;52.512;13.448;2023-07-22T05:04:21;3.15;;;2.35;;
63218;SDS011;49320;52.512;13.448;2023-07-22T05:06:49;3.47;;;2.40;;
63218;SDS011;49320;52.512;13.448;2023-07-22T05:09:16;3.65;;;2.30;;
63218;SDS011;49320;52.512;13.448;2023-07-22T05:11:43;3.53;;;2.40;;
63218;SDS011;49320;52.512;13.448;2023-07-22T05:14:10;3.70;;;2.70;;
63218;SDS011;49320;52.512;13.448;2023-07-22T05:16:38;3.00;;;2.35;;
63218;SDS011;49320;52.512;13.448;2023-07-22T05:19:05;3.47;;;2.88;;
63218;SDS011;49320;52.512;13.448;2023-07-22T05:21:34;4.15;;;2.97;;
63218;SDS011;49320;52.512;13.448;2023-07-22T05:24:01;3.03;;;2.70;;
63218;SDS011;49320;52.512;13.448;2023-07-22T05:26:28;3.15;;;2.75;;
63218;SDS011;49320;52.512;13.448;2023-07-22T05:28:56;4.10;;;2.80;;
63218;SDS011;49320;52.512;13.448;2023-07-22T05:31:23;4.60;;;3.13;;
63218;SDS011;49320;52.512;13.448;2023-07-22T05:33:51;3.28;;;2.97;;
63218;SDS011;49320;52.512;13.448;2023-07-22T05:36:18;3.67;;;3.38;;
63218;SDS011;49320;52.512;13.448;2023-07-22T05:38:45;3.72;;;3.05;;
63218;SDS011;49320;52.512;13.448;2023-07-22T05:41:12;4.35;;;3.50;;
63218;SDS011;49320;52.512;13.448;2023-07-22T05:43:39;5.45;;;3.78;;
63218;SDS011;49320;52.512;13.448;2023-07-22T05:46:06;4.25;;;3.58;;
63218;SDS011;49320;52.512;13.448;2023-07-22T05:48:33;5.28;;;4.32;;
63218;SDS011;49320;52.512;13.448;2023-07-22T05:51:00;4.45;;;3.80;;
63218;SDS011;49320;52.512;13.448;2023-07-22T05:53:27;4.82;;;4.00;;
63218;SDS011;49320;52.512;13.448;2023-07-22T05:55:54;5.70;;;3.60;;
63218;SDS011;49320;52.512;13.448;2023-07-22T05:58:21;6.00;;;4.20;;
63218;SDS011;49320;52.512;13.448;2023-07-22T06:00:48;3.95;;;3.42;;
63218;SDS011;49320;52.512;13.448;2023-07-22T06:03:17;5.50;;;3.95;;
63218;SDS011;49320;52.512;13.448;2023-07-22T06:05:45;4.55;;;3.70;;
63218;SDS011;49320;52.512;13.448;2023-07-22T06:08:12;4.93;;;3.85;;
63218;SDS011;49320;52.512;13.448;2023-07-22T06:10:39;5.50;;;3.90;;
63218;SDS011;49320;52.512;13.448;2023-07-22T06:13:07;5.18;;;3.92;;
63218;SDS011;49320;52.512;13.448;2023-07-22T06:15:34;8.23;;;3.92;;
63218;SDS011;49320;52.512;13.448;2023-07-22T06:18:01;4.85;;;3.92;;
63218;SDS011;49320;52.512;13.448;2023-07-22T06:20:28;5.80;;;4.68;;
63218;SDS011;49320;52.512;13.448;2023-07-22T06:22:55;5.53;;;4.70;;
63218;SDS011;49320;52.512;13.448;2023-07-22T06:25:23;5.43;;;4.30;;
63218;SDS011;49320;52.512;13.448;2023-07-22T06:27:50;5.25;;;4.47;;
63218;SDS011;49320;52.512;13.448;2023-07-22T06:30:20;6.07;;;4.40;;
63218;SDS011;49320;52.512;13.448;2023-07-22T06:32:46;5.05;;;4.32;;
63218;SDS011;49320;52.512;13.448;2023-07-22T06:35:13;4.75;;;4.25;;
63218;SDS011;49320;52.512;13.448;2023-07-22T06:37:41;5.13;;;3.80;;
63218;SDS011;49320;52.512;13.448;2023-07-22T06:40:08;4.65;;;3.72;;
63218;SDS011;49320;52.512;13.448;2023-07-22T06:42:36;3.53;;;3.20;;
63218;SDS011;49320;52.512;13.448;2023-07-22T06:45:04;5.20;;;3.80;;
63218;SDS011;49320;52.512;13.448;2023-07-22T06:47:31;3.78;;;3.13;;
63218;SDS011;49320;52.512;13.448;2023-07-22T06:49:58;4.43;;;3.45;;
63218;SDS011;49320;52.512;13.448;2023-07-22T06:52:26;4.25;;;3.20;;
63218;SDS011;49320;52.512;13.448;2023-07-22T06:54:53;5.53;;;3.78;;
63218;SDS011;49320;52.512;13.448;2023-07-22T06:57:20;6.88;;;4.25;;
63218;SDS011;49320;52.512;13.448;2023-07-22T06:59:48;5.28;;;3.70;;
63218;SDS011;49320;52.512;13.448;2023-07-22T07:02:17;4.80;;;3.70;;
63218;SDS011;49320;52.512;13.448;2023-07-22T07:04:43;5.18;;;3.70;;
63218;SDS011;49320;52.512;13.448;2023-07-22T07:07:11;6.20;;;3.90;;
63218;SDS011;49320;52.512;13.448;2023-07-22T07:09:39;3.33;;;2.90;;
63218;SDS011;49320;52.512;13.448;2023-07-22T07:12:07;3.25;;;2.85;;
63218;SDS011;49320;52.512;13.448;2023-07-22T07:14:35;3.75;;;2.67;;
63218;SDS011;49320;52.512;13.448;2023-07-22T07:17:02;4.03;;;2.90;;
63218;SDS011;49320;52.512;13.448;2023-07-22T07:19:29;4.70;;;2.85;;
63218;SDS011;49320;52.512;13.448;2023-07-22T07:21:56;3.67;;;2.78;;
63218;SDS011;49320;52.512;13.448;2023-07-22T07:24:24;4.38;;;3.38;;
63218;SDS011;49320;52.512;13.448;2023-07-22T07:26:53;3.80;;;2.78;;
63218;SDS011;49320;52.512;13.448;2023-07-22T07:29:20;4.72;;;2.67;;
63218;SDS011;49320;52.512;13.448;2023-07-22T07:32:07;3.70;;;2.70;;
63218;SDS011;49320;52.512;13.448;2023-07-22T07:34:34;3.80;;;3.10;;
63218;SDS011;49320;52.512;13.448;2023-07-22T07:37:02;4.72;;;3.13;;
63218;SDS011;49320;52.512;13.448;2023-07-22T07:39:29;4.72;;;3.17;;
63218;SDS011;49320;52.512;13.448;2023-07-22T07:41:56;3.33;;;2.95;;
63218;SDS011;49320;52.512;13.448;2023-07-22T07:44:23;4.35;;;3.20;;
63218;SDS011;49320;52.512;13.448;2023-07-22T07:46:50;4.68;;;3.42;;
63218;SDS011;49320;52.512;13.448;2023-07-22T07:49:17;3.60;;;3.13;;
63218;SDS011;49320;52.512;13.448;2023-07-22T07:51:44;5.00;;;3.20;;
63218;SDS011;49320;52.512;13.448;2023-07-22T07:54:11;4.45;;;3.15;;
63218;SDS011;49320;52.512;13.448;2023-07-22T07:56:38;4.38;;;3.05;;
63218;SDS011;49320;52.512;13.448;2023-07-22T07:59:06;5.63;;;3.55;;
63218;SDS011;49320;52.512;13.448;2023-07-22T08:01:35;3.35;;;2.95;;
63218;SDS011;49320;52.512;13.448;2023-07-22T08:04:08;3.80;;;2.70;;
63218;SDS011;49320;52.512;13.448;2023-07-22T08:06:34;4.68;;;3.20;;
63218;SDS011;49320;52.512;13.448;2023-07-22T08:09:04;4.00;;;3.00;;
63218;SDS011;49320;52.512;13.448;2023-07-22T08:11:31;4.22;;;3.45;;
63218;SDS011;49320;52.512;13.448;2023-07-22T08:13:59;3.90;;;3.15;;
63218;SDS011;49320;52.512;13.448;2023-07-22T08:16:26;4.32;;;3.20;;
63218;SDS011;49320;52.512;13.448;2023-07-22T08:18:55;4.95;;;3.25;;
63218;SDS011;49320;52.512;13.448;2023-07-22T08:21:22;7.15;;;3.72;;
63218;SDS011;49320;52.512;13.448;2023-07-22T08:23:48;4.10;;;3.53;;
63218;SDS011;49320;52.512;13.448;2023-07-22T08:26:15;3.85;;;2.97;;
63218;SDS011;49320;52.512;13.448;2023-07-22T08:28:47;5.13;;;3.17;;
63218;SDS011;49320;52.512;13.448;2023-07-22T08:31:14;5.53;;;3.75;;
63218;SDS011;49320;52.512;13.448;2023-07-22T08:33:41;5.35;;;3.38;;
63218;SDS011;49320;52.512;13.448;2023-07-22T08:36:08;5.60;;;3.88;;
63218;SDS011;49320;52.512;13.448;2023-07-22T08:38:36;6.07;;;3.67;;
63218;SDS011;49320;52.512;13.448;2023-07-22T08:41:03;4.80;;;3.58;;
63218;SDS011;49320;52.512;13.448;2023-07-22T08:43:30;4.25;;;3.50;;
63218;SDS011;49320;52.512;13.448;2023-07-22T08:46:01;4.68;;;3.80;;
63218;SDS011;49320;52.512;13.448;2023-07-22T08:48:31;4.95;;;3.35;;
63218;SDS011;49320;52.512;13.448;2023-07-22T08:53:32;4.03;;;3.00;;
63218;SDS011;49320;52.512;13.448;2023-07-22T08:56:00;4.90;;;3.33;;
63218;SDS011;49320;52.512;13.448;2023-07-22T08:58:28;5.30;;;3.35;;
63218;SDS011;49320;52.512;13.448;2023-07-22T09:00:56;5.03;;;3.65;;
63218;SDS011;49320;52.512;13.448;2023-07-22T09:03:24;4.38;;;3.38;;
63218;SDS011;49320;52.512;13.448;2023-07-22T09:05:52;4.35;;;3.45;;
63218;SDS011;49320;52.512;13.448;2023-07-22T09:08:20;4.60;;;3.50;;
63218;SDS011;49320;52.512;13.448;2023-07-22T09:10:48;4.60;;;3.53;;
63218;SDS011;49320;52.512;13.448;2023-07-22T09:13:15;4.50;;;3.83;;
63218;SDS011;49320;52.512;13.448;2023-07-22T09:15:44;4.82;;;3.47;;
63218;SDS011;49320;52.512;13.448;2023-07-22T09:18:12;6.25;;;3.97;;
63218;SDS011;49320;52.512;13.448;2023-07-22T09:20:41;4.13;;;3.45;;
63218;SDS011;49320;52.512;13.448;2023-07-22T09:23:09;4.15;;;3.55;;
63218;SDS011;49320;52.512;13.448;2023-07-22T09:25:40;6.15;;;3.60;;
63218;SDS011;49320;52.512;13.448;2023-07-22T09:28:08;4.05;;;3.20;;
63218;SDS011;49320;52.512;13.448;2023-07-22T09:30:37;4.80;;;3.22;;
63218;SDS011;49320;52.512;13.448;2023-07-22T09:33:07;3.42;;;2.95;;
63218;SDS011;49320;52.512;13.448;2023-07-22T09:35:48;3.15;;;2.85;;
63218;SDS011;49320;52.512;13.448;2023-07-22T09:38:22;4.32;;;3.15;;
63218;SDS011;49320;52.512;13.448;2023-07-22T09:40:51;3.63;;;3.22;;
63218;SDS011;49320;52.512;13.448;2023-07-22T09:43:18;3.72;;;3.08;;
63218;SDS011;49320;52.512;13.448;2023-07-22T09:45:46;3.78;;;3.10;;
63218;SDS011;49320;52.512;13.448;2023-07-22T09:48:14;3.50;;;2.67;;
63218;SDS011;49320;52.512;13.448;2023-07-22T09:50:42;4.60;;;2.85;;
63218;SDS011;49320;52.512;13.448;2023-07-22T09:53:09;3.90;;;3.22;;
63218;SDS011;49320;52.512;13.448;2023-07-22T09:55:42;3.28;;;2.55;;
63218;SDS011;49320;52.512;13.448;2023-07-22T09:58:10;4.07;;;2.40;;
63218;SDS011;49320;52.512;13.448;2023-07-22T10:00:41;3.60;;;2.83;;
63218;SDS011;49320;52.512;13.448;2023-07-22T10:03:14;3.70;;;2.67;;
63218;SDS011;49320;52.512;13.448;2023-07-22T10:05:45;3.83;;;2.42;;
63218;SDS011;49320;52.512;13.448;2023-07-22T10:08:14;3.97;;;2.75;;
63218;SDS011;49320;52.512;13.448;2023-07-22T10:10:45;2.72;;;2.20;;
63218;SDS011;49320;52.512;13.448;2023-07-22T10:13:13;4.03;;;2.60;;
63218;SDS011;49320;52.512;13.448;2023-07-22T10:15:41;3.20;;;2.70;;
63218;SDS011;49320;52.512;13.448;2023-07-22T10:18:08;3.17;;;2.45;;
63218;SDS011;49320;52.512;13.448;2023-07-22T10:20:37;3.42;;;2.60;;
63218;SDS011;49320;52.512;13.448;2023-07-22T10:23:06;3.35;;;2.63;;
63218;SDS011;49320;52.512;13.448;2023-07-22T10:25:38;4.32;;;3.05;;
63218;SDS011;49320;52.512;13.448;2023-07-22T10:28:08;3.17;;;2.40;;
63218;SDS011;49320;52.512;13.448;2023-07-22T10:30:36;3.53;;;2.50;;
63218;SDS011;49320;52.512;13.448;2023-07-22T10:33:03;4.97;;;2.35;;
63218;SDS011;49320;52.512;13.448;2023-07-22T10:40:44;3.28;;;2.38;;
63218;SDS011;49320;52.512;13.448;2023-07-22T10:43:14;3.65;;;2.35;;
63218;SDS011;49320;52.512;13.448;2023-07-22T10:45:49;3.83;;;2.80;;
63218;SDS011;49320;52.512;13.448;2023-07-22T10:48:20;3.38;;;2.63;;
63218;SDS011;49320;52.512;13.448;2023-07-22T10:50:53;4.43;;;2.50;;
63218;SDS011;49320;52.512;13.448;2023-07-22T11:04:14;3.28;;;2.72;;
63218;SDS011;49320;52.512;13.448;2023-07-22T11:07:12;5.18;;;3.17;;
63218;SDS011;49320;52.512;13.448;2023-07-22T11:09:39;4.88;;;3.38;;
63218;SDS011;49320;52.512;13.448;2023-07-22T11:12:11;5.88;;;3.38;;
63218;SDS011;49320;52.512;13.448;2023-07-22T11:14:51;3.25;;;2.60;;
63218;SDS011;49320;52.512;13.448;2023-07-22T11:17:29;3.38;;;2.83;;
63218;SDS011;49320;52.512;13.448;2023-07-22T11:19:59;4.55;;;3.03;;
63218;SDS011;49320;52.512;13.448;2023-07-22T11:22:27;4.53;;;3.13;;
63218;SDS011;49320;52.512;13.448;2023-07-22T11:24:57;3.20;;;2.90;;
63218;SDS011;49320;52.512;13.448;2023-07-22T11:27:26;4.25;;;3.17;;
63218;SDS011;49320;52.512;13.448;2023-07-22T11:29:56;5.38;;;3.45;;
63218;SDS011;49320;52.512;13.448;2023-07-22T11:32:25;4.60;;;3.55;;
63218;SDS011;49320;52.512;13.448;2023-07-22T11:34:52;3.90;;;2.90;;
63218;SDS011;49320;52.512;13.448;2023-07-22T11:37:20;5.72;;;3.08;;
63218;SDS011;49320;52.512;13.448;2023-07-22T11:39:47;3.53;;;2.70;;
63218;SDS011;49320;52.512;13.448;2023-07-22T11:42:14;4.18;;;3.17;;
63218;SDS011;49320;52.512;13.448;2023-07-22T11:44:42;3.65;;;3.25;;
63218;SDS011;49320;52.512;13.448;2023-07-22T11:47:09;3.83;;;3.00;;
63218;SDS011;49320;52.512;13.448;2023-07-22T11:49:40;4.38;;;3.40;;
63218;SDS011;49320;52.512;13.448;2023-07-22T11:52:08;4.57;;;3.38;;
63218;SDS011;49320;52.512;13.448;2023-07-22T11:54:38;4.25;;;3.15;;
63218;SDS011;49320;52.512;13.448;2023-07-22T11:57:17;3.75;;;3.28;;
63218;SDS011;49320;52.512;13.448;2023-07-22T11:59:50;4.55;;;3.45;;
63218;SDS011;49320;52.512;13.448;2023-07-22T12:02:20;4.15;;;3.22;;
63218;SDS011;49320;52.512;13.448;2023-07-22T12:04:59;3.60;;;3.13;;
63218;SDS011;49320;52.512;13.448;2023-07-22T12:07:35;5.35;;;3.58;;
63218;SDS011;49320;52.512;13.448;2023-07-22T12:10:05;5.35;;;3.47;;
63218;SDS011;49320;52.512;13.448;2023-07-22T12:12:38;4.45;;;3.47;;
63218;SDS011;49320;52.512;13.448;2023-07-22T12:17:46;3.53;;;3.08;;
63218;SDS011;49320;52.512;13.448;2023-07-22T12:20:15;4.05;;;2.97;;
63218;SDS011;49320;52.512;13.448;2023-07-22T12:22:43;4.43;;;3.42;;
63218;SDS011;49320;52.512;13.448;2023-07-22T12:25:10;4.50;;;2.70;;
63218;SDS011;49320;52.512;13.448;2023-07-22T12:27:37;3.60;;;3.10;;
63218;SDS011;49320;52.512;13.448;2023-07-22T12:30:05;4.65;;;3.15;;
63218;SDS011;49320;52.512;13.448;2023-07-22T12:32:33;5.25;;;4.28;;
63218;SDS011;49320;52.512;13.448;2023-07-22T12:35:01;4.13;;;3.42;;
63218;SDS011;49320;52.512;13.448;2023-07-22T12:37:29;4.40;;;3.65;;
63218;SDS011;49320;52.512;13.448;2023-07-22T12:39:57;3.60;;;3.30;;
63218;SDS011;49320;52.512;13.448;2023-07-22T12:42:24;4.90;;;3.50;;
63218;SDS011;49320;52.512;13.448;2023-07-22T12:44:51;4.20;;;3.33;;
63218;SDS011;49320;52.512;13.448;2023-07-22T12:47:19;4.57;;;3.30;;
63218;SDS011;49320;52.512;13.448;2023-07-22T12:49:46;5.03;;;4.03;;
63218;SDS011;49320;52.512;13.448;2023-07-22T12:52:13;4.00;;;3.22;;
63218;SDS011;49320;52.512;13.448;2023-07-22T12:54:40;4.15;;;3.70;;
63218;SDS011;49320;52.512;13.448;2023-07-22T12:57:08;3.75;;;3.45;;
63218;SDS011;49320;52.512;13.448;2023-07-22T12:59:35;3.92;;;3.42;;
63218;SDS011;49320;52.512;13.448;2023-07-22T13:02:02;4.05;;;3.47;;
63218;SDS011;49320;52.512;13.448;2023-07-22T13:04:29;4.43;;;3.70;;
63218;SDS011;49320;52.512;13.448;2023-07-22T13:06:56;4.32;;;3.70;;
63218;SDS011;49320;52.512;13.448;2023-07-22T13:09:24;4.10;;;3.47;;
63218;SDS011;49320;52.512;13.448;2023-07-22T13:11:51;4.30;;;3.30;;
63218;SDS011;49320;52.512;13.448;2023-07-22T13:14:18;3.47;;;3.17;;
63218;SDS011;49320;52.512;13.448;2023-07-22T13:16:45;3.58;;;3.20;;
63218;SDS011;49320;52.512;13.448;2023-07-22T13:19:12;4.10;;;3.65;;
63218;SDS011;49320;52.512;13.448;2023-07-22T13:21:39;3.80;;;3.17;;
63218;SDS011;49320;52.512;13.448;2023-07-22T13:24:07;3.83;;;3.22;;
63218;SDS011;49320;52.512;13.448;2023-07-22T13:26:34;3.72;;;3.25;;
63218;SDS011;49320;52.512;13.448;2023-07-22T13:29:04;5.20;;;3.40;;
63218;SDS011;49320;52.512;13.448;2023-07-22T13:31:31;4.40;;;3.65;;
63218;SDS011;49320;52.512;13.448;2023-07-22T13:33:58;3.53;;;3.22;;
63218;SDS011;49320;52.512;13.448;2023-07-22T13:36:26;4.85;;;3.33;;
63218;SDS011;49320;52.512;13.448;2023-07-22T13:38:53;3.95;;;3.50;;
63218;SDS011;49320;52.512;13.448;2023-07-22T13:41:20;4.82;;;3.75;;
63218;SDS011;49320;52.512;13.448;2023-07-22T13:43:48;7.25;;;3.47;;
63218;SDS011;49320;52.512;13.448;2023-07-22T13:46:15;3.72;;;3.25;;
63218;SDS011;49320;52.512;13.448;2023-07-22T13:48:42;3.95;;;3.38;;
63218;SDS011;49320;52.512;13.448;2023-07-22T13:51:08;3.78;;;3.47;;
63218;SDS011;49320;52.512;13.448;2023-07-22T13:53:35;4.15;;;3.45;;
63218;SDS011;49320;52.512;13.448;2023-07-22T13:56:02;3.88;;;3.45;;
63218;SDS011;49320;52.512;13.448;2023-07-22T13:58:29;3.60;;;2.97;;
63218;SDS011;49320;52.512;13.448;2023-07-22T14:00:56;4.07;;;3.50;;
63218;SDS011;49320;52.512;13.448;2023-07-22T14:03:27;3.75;;;3.35;;
63218;SDS011;49320;52.512;13.448;2023-07-22T14:05:54;3.40;;;3.10;;
63218;SDS011;49320;52.512;13.448;2023-07-22T14:08:22;3.35;;;2.95;;
63218;SDS011;49320;52.512;13.448;2023-07-22T14:10:49;4.45;;;3.17;;
63218;SDS011;49320;52.512;13.448;2023-07-22T14:13:16;4.03;;;2.95;;
63218;SDS011;49320;52.512;13.448;2023-07-22T14:15:43;3.70;;;3.03;;
63218;SDS011;49320;52.512;13.448;2023-07-22T14:18:10;4.10;;;3.38;;
63218;SDS011;49320;52.512;13.448;2023-07-22T14:20:43;4.72;;;3.47;;
63218;SDS011;49320;52.512;13.448;2023-07-22T14:23:11;3.42;;;3.13;;
63218;SDS011;49320;52.512;13.448;2023-07-22T14:25:39;3.28;;;2.97;;
63218;SDS011;49320;52.512;13.448;2023-07-22T14:28:06;3.67;;;3.25;;
63218;SDS011;49320;52.512;13.448;2023-07-22T14:30:33;4.20;;;3.40;;
63218;SDS011;49320;52.512;13.448;2023-07-22T14:33:00;4.35;;;3.67;;
63218;SDS011;49320;52.512;13.448;2023-07-22T14:35:27;3.53;;;3.20;;
63218;SDS011;49320;52.512;13.448;2023-07-22T14:37:54;4.35;;;3.15;;
63218;SDS011;49320;52.512;13.448;2023-07-22T14:40:25;5.28;;;3.17;;
63218;SDS011;49320;52.512;13.448;2023-07-22T14:42:52;4.07;;;3.67;;
63218;SDS011;49320;52.512;13.448;2023-07-22T14:45:19;4.18;;;3.50;;
63218;SDS011;49320;52.512;13.448;2023-07-22T14:47:46;3.75;;;3.28;;
63218;SDS011;49320;52.512;13.448;2023-07-22T14:50:14;3.60;;;3.25;;
63218;SDS011;49320;52.512;13.448;2023-07-22T14:52:41;4.97;;;3.10;;
63218;SDS011;49320;52.512;13.448;2023-07-22T14:55:09;4.03;;;3.20;;
63218;SDS011;49320;52.512;13.448;2023-07-22T14:57:36;5.13;;;3.30;;
63218;SDS011;49320;52.512;13.448;2023-07-22T15:00:03;3.08;;;2.78;;